Time;durP1;ratioP1;P1;durP2;ratioP2;P2;SDS_P1;SDS_P2;PMS_P1;PMS_P2;Temp;Humidity;BMP_temperature;BMP_pressure;BME280_temperature;BME280_humidity;BME280_pressure;Samples;Min_cycle;Max_cycle;Signal;HPM_P1;HPM_P2
2023/05/10 00:01:05;;;;;;;23.95;18.17;;;13.10;99.90;;;;;;5065796;28;20703;-66
2023/05/10 00:03:31;;;;;;;27.25;18.70;;;13.10;99.90;;;;;;5066388;28;20744;-65
2023/05/10 00:05:56;;;;;;;26.38;17.20;;;13.00;99.90;;;;;;5050141;28;20070;-64
2023/05/10 00:08:22;;;;;;;25.17;17.15;;;13.00;99.90;;;;;;5050552;28;20044;-64
2023/05/10 00:10:48;;;;;;;23.25;16.33;;;13.00;99.90;;;;;;5049165;28;20068;-67
2023/05/10 00:13:14;;;;;;;20.88;14.82;;;12.90;99.90;;;;;;5049772;28;20419;-64
2023/05/10 00:15:39;;;;;;;17.05;12.40;;;12.80;99.90;;;;;;5081449;28;20122;-64
2023/05/10 00:18:05;;;;;;;17.58;12.15;;;12.80;99.90;;;;;;5069551;28;20487;-63
2023/05/10 00:20:31;;;;;;;21.85;13.40;;;12.70;99.90;;;;;;5057343;28;20068;-65
2023/05/10 00:22:56;;;;;;;20.58;12.43;;;12.60;99.90;;;;;;5049609;28;20415;-65
2023/05/10 00:25:22;;;;;;;21.35;13.27;;;12.60;99.90;;;;;;5066426;28;20051;-65
2023/05/10 00:27:48;;;;;;;20.83;13.88;;;12.60;99.90;;;;;;5050280;28;20045;-65
2023/05/10 00:30:14;;;;;;;22.10;13.32;;;12.50;99.90;;;;;;5066445;28;20118;-65
2023/05/10 00:32:40;;;;;;;23.52;13.52;;;12.50;99.90;;;;;;5049696;28;20041;-63
2023/05/10 00:35:05;;;;;;;19.73;12.65;;;12.50;99.90;;;;;;5066293;28;20185;-66
2023/05/10 00:37:31;;;;;;;24.85;14.60;;;12.50;99.90;;;;;;5066589;28;20048;-65
2023/05/10 00:39:57;;;;;;;25.08;15.40;;;12.50;99.90;;;;;;5081597;28;20549;-67
2023/05/10 00:42:22;;;;;;;27.33;15.25;;;12.50;99.90;;;;;;5053373;28;20032;-65
2023/05/10 00:44:48;;;;;;;26.38;15.30;;;12.50;99.90;;;;;;5059945;28;20476;-63
2023/05/10 00:47:15;;;;;;;26.80;14.63;;;12.50;99.90;;;;;;5067449;28;20047;-64
2023/05/10 00:49:41;;;;;;;27.25;14.73;;;12.50;99.90;;;;;;5064317;28;20450;-66
2023/05/10 00:52:08;;;;;;;29.40;15.20;;;12.50;99.90;;;;;;5068456;28;20040;-65
2023/05/10 00:54:33;;;;;;;29.85;15.70;;;12.50;99.90;;;;;;5085761;28;20055;-65
2023/05/10 00:56:59;;;;;;;26.83;15.48;;;12.50;99.90;;;;;;5085651;28;20097;-65
2023/05/10 00:59:25;;;;;;;34.88;16.60;;;12.50;99.90;;;;;;5059705;28;20040;-65
2023/05/10 01:01:51;;;;;;;27.25;15.27;;;12.50;99.90;;;;;;5065316;28;20131;-66
2023/05/10 01:04:17;;;;;;;26.52;15.07;;;12.50;99.90;;;;;;5065832;28;20053;-66
2023/05/10 01:06:43;;;;;;;27.13;14.95;;;12.50;99.90;;;;;;5049072;28;20492;-66
2023/05/10 01:09:11;;;;;;;23.05;13.95;;;12.50;99.90;;;;;;5065572;28;20453;-66
2023/05/10 01:11:39;;;;;;;30.98;15.32;;;12.50;99.90;;;;;;5081683;28;20051;-63
2023/05/10 01:14:06;;;;;;;25.45;15.52;;;12.50;99.90;;;;;;5077740;28;20055;-65
2023/05/10 01:16:36;;;;;;;26.52;15.40;;;12.50;99.90;;;;;;5082813;28;20226;-66
2023/05/10 01:19:03;;;;;;;25.20;13.80;;;12.50;99.90;;;;;;5082623;28;20442;-67
2023/05/10 01:21:47;;;;;;;27.23;14.63;;;12.50;99.90;;;;;;5047994;28;20075;-65
2023/05/10 01:24:22;;;;;;;27.58;14.88;;;12.50;99.90;;;;;;5065013;28;20128;-65
2023/05/10 01:27:16;;;;;;;20.15;13.70;;;12.50;99.90;;;;;;5048456;28;20450;-66
2023/05/10 01:29:51;;;;;;;25.65;14.02;;;12.50;99.90;;;;;;5048220;28;20037;-64
2023/05/10 01:32:26;;;;;;;28.73;14.73;;;12.50;99.90;;;;;;5048439;28;20156;-64
2023/05/10 01:34:59;;;;;;;25.17;14.65;;;12.50;99.90;;;;;;5063015;28;20043;-64
2023/05/10 01:37:42;;;;;;;24.13;13.63;;;12.50;99.90;;;;;;5068880;28;20036;-65
2023/05/10 01:40:30;;;;;;;25.85;13.80;;;12.50;99.90;;;;;;5055529;28;20044;-64
2023/05/10 01:43:03;;;;;;;25.35;14.10;;;12.50;99.90;;;;;;5064770;28;20080;-65
2023/05/10 01:45:36;;;;;;;31.27;14.90;;;12.50;99.90;;;;;;5049436;28;20131;-64
2023/05/10 01:48:13;;;;;;;27.75;14.57;;;12.50;99.90;;;;;;5065262;28;20051;-65
2023/05/10 01:50:43;;;;;;;24.33;13.63;;;12.50;99.90;;;;;;5076552;28;20681;-63
2023/05/10 01:53:10;;;;;;;24.95;14.00;;;12.50;99.90;;;;;;5048967;28;20094;-64
2023/05/10 01:55:46;;;;;;;28.63;14.98;;;12.50;99.90;;;;;;5084664;28;20043;-63
2023/05/10 01:58:18;;;;;;;23.77;13.20;;;12.50;99.90;;;;;;5084537;28;20141;-65
2023/05/10 02:00:47;;;;;;;27.75;14.15;;;12.50;99.90;;;;;;5049165;28;20040;-64
2023/05/10 02:03:14;;;;;;;26.98;14.48;;;12.50;99.90;;;;;;5070126;28;20260;-64
2023/05/10 02:05:44;;;;;;;20.60;12.40;;;12.50;99.90;;;;;;5053181;28;20048;-67
2023/05/10 02:08:10;;;;;;;23.75;12.95;;;12.40;99.90;;;;;;5059948;28;20709;-64
2023/05/10 02:10:39;;;;;;;23.75;14.07;;;12.40;99.90;;;;;;5083663;28;20134;-63
2023/05/10 02:13:07;;;;;;;22.58;13.13;;;12.40;99.90;;;;;;5062984;28;20044;-64
2023/05/10 02:15:33;;;;;;;19.35;12.13;;;12.40;99.90;;;;;;5077723;28;20048;-66
2023/05/10 02:18:02;;;;;;;22.35;12.48;;;12.30;99.90;;;;;;5084876;28;20040;-64
2023/05/10 02:20:29;;;;;;;20.05;12.15;;;12.30;99.90;;;;;;5055544;28;20044;-64
2023/05/10 02:22:57;;;;;;;23.10;12.68;;;12.30;99.90;;;;;;5060258;28;20055;-63
2023/05/10 02:25:24;;;;;;;21.02;13.32;;;12.20;99.90;;;;;;5067054;28;20210;-64
2023/05/10 02:27:53;;;;;;;21.58;12.93;;;12.20;99.90;;;;;;5064049;28;20577;-65
2023/05/10 02:30:20;;;;;;;21.15;13.27;;;12.20;99.90;;;;;;5047034;28;20078;-64
2023/05/10 02:32:47;;;;;;;22.90;13.85;;;12.20;99.90;;;;;;5063871;28;20048;-65
2023/05/10 02:35:15;;;;;;;23.50;15.05;;;12.20;99.90;;;;;;5064062;28;20133;-63
2023/05/10 02:37:41;;;;;;;23.98;14.57;;;12.20;99.90;;;;;;5064106;28;20063;-63
2023/05/10 02:40:08;;;;;;;23.77;14.40;;;12.20;99.90;;;;;;5063427;28;20044;-66
2023/05/10 02:42:37;;;;;;;27.48;15.02;;;12.20;99.90;;;;;;5068615;28;20040;-63
2023/05/10 02:45:07;;;;;;;26.10;15.10;;;12.20;99.90;;;;;;5056839;28;20491;-63
2023/05/10 02:47:34;;;;;;;27.17;15.15;;;12.20;99.90;;;;;;5062007;28;20044;-64
2023/05/10 02:49:59;;;;;;;28.13;15.18;;;12.20;99.90;;;;;;5051502;28;20179;-65
2023/05/10 02:52:28;;;;;;;28.52;14.93;;;12.20;99.90;;;;;;5047042;28;20123;-64
2023/05/10 02:55:02;;;;;;;27.77;15.10;;;12.20;99.90;;;;;;5046993;28;20420;-63
2023/05/10 02:57:33;;;;;;;31.08;14.82;;;12.20;99.90;;;;;;5047326;28;20047;-64
2023/05/10 03:00:00;;;;;;;30.40;15.38;;;12.10;99.90;;;;;;5063310;28;20048;-63
2023/05/10 03:02:26;;;;;;;27.27;15.27;;;12.10;99.90;;;;;;5046842;28;20047;-63
2023/05/10 03:04:52;;;;;;;25.50;15.15;;;12.10;99.90;;;;;;5052255;28;20267;-63
2023/05/10 03:07:20;;;;;;;30.83;15.85;;;12.10;99.90;;;;;;5083935;28;20526;-61
2023/05/10 03:09:48;;;;;;;32.60;17.17;;;12.10;99.90;;;;;;5066892;28;20433;-64
2023/05/10 03:12:22;;;;;;;35.28;16.38;;;12.10;99.90;;;;;;5074839;28;20040;-64
2023/05/10 03:15:10;;;;;;;30.98;17.60;;;12.10;99.90;;;;;;5064062;28;20036;-64
2023/05/10 03:17:52;;;;;;;34.45;17.08;;;12.10;99.90;;;;;;5068258;28;20041;-63
2023/05/10 03:20:26;;;;;;;32.00;16.85;;;12.10;99.90;;;;;;5076576;28;20051;-65
2023/05/10 03:23:00;;;;;;;34.35;17.42;;;12.10;99.90;;;;;;5075240;28;20144;-66
2023/05/10 03:25:26;;;;;;;34.90;17.60;;;12.10;99.90;;;;;;5067538;28;20399;-63
2023/05/10 03:27:52;;;;;;;37.35;18.23;;;12.10;99.90;;;;;;5050695;28;20048;-62
2023/05/10 03:30:19;;;;;;;38.33;19.02;;;12.10;99.90;;;;;;5067034;28;20044;-63
2023/05/10 03:32:45;;;;;;;39.50;18.90;;;12.10;99.90;;;;;;5066130;28;20083;-63
2023/05/10 03:35:13;;;;;;;42.22;18.92;;;12.10;99.90;;;;;;5057565;28;20060;-65
2023/05/10 03:37:39;;;;;;;47.25;19.98;;;12.10;99.90;;;;;;5071053;28;20093;-64
2023/05/10 03:40:05;;;;;;;42.30;20.35;;;12.10;99.90;;;;;;5058060;28;20256;-62
2023/05/10 03:42:31;;;;;;;48.40;20.58;;;12.10;99.90;;;;;;5050494;28;20375;-64
2023/05/10 03:44:57;;;;;;;49.92;21.95;;;12.10;99.90;;;;;;5049767;28;20388;-63
2023/05/10 03:47:22;;;;;;;43.20;20.40;;;12.10;99.90;;;;;;5067509;28;20041;-63
2023/05/10 03:49:48;;;;;;;47.75;20.98;;;12.10;99.90;;;;;;5049929;28;20079;-63
2023/05/10 03:52:14;;;;;;;46.50;21.85;;;12.10;99.90;;;;;;5070021;28;20047;-64
2023/05/10 03:54:39;;;;;;;47.75;21.20;;;12.10;99.90;;;;;;5069809;28;20483;-65
2023/05/10 03:57:05;;;;;;;45.08;20.35;;;12.10;99.90;;;;;;5083836;28;20505;-62
2023/05/10 03:59:31;;;;;;;52.78;21.02;;;12.10;99.90;;;;;;5066537;28;20043;-63
2023/05/10 04:01:56;;;;;;;43.05;21.13;;;12.10;99.90;;;;;;5066663;28;20051;-63
2023/05/10 04:04:23;;;;;;;51.60;20.70;;;12.10;99.90;;;;;;5066511;28;20533;-63
2023/05/10 04:06:49;;;;;;;52.53;21.58;;;12.10;99.90;;;;;;5050310;28;20044;-64
2023/05/10 04:09:15;;;;;;;51.05;21.80;;;12.10;99.90;;;;;;5066783;28;20060;-63
2023/05/10 04:11:40;;;;;;;55.53;22.10;;;12.10;99.90;;;;;;5067363;28;20052;-62
2023/05/10 04:14:06;;;;;;;47.75;22.00;;;12.10;99.90;;;;;;5049876;28;20040;-63
2023/05/10 04:16:32;;;;;;;45.60;21.02;;;12.10;99.90;;;;;;5066953;28;20626;-62
2023/05/10 04:18:57;;;;;;;43.65;21.38;;;12.10;99.90;;;;;;5066807;28;20532;-64
2023/05/10 04:21:23;;;;;;;37.50;19.70;;;12.10;99.90;;;;;;5049557;28;20523;-64
2023/05/10 04:23:49;;;;;;;31.13;17.65;;;12.10;99.90;;;;;;5066693;28;20052;-62
2023/05/10 04:26:15;;;;;;;43.33;19.15;;;12.10;99.90;;;;;;5048791;28;20048;-64
2023/05/10 04:28:40;;;;;;;40.70;18.58;;;12.10;99.90;;;;;;5048886;28;20037;-63
2023/05/10 04:31:09;;;;;;;39.25;17.95;;;12.10;99.90;;;;;;5075781;28;20525;-62
2023/05/10 04:33:35;;;;;;;31.63;16.58;;;12.00;99.90;;;;;;5087051;28;20113;-65
2023/05/10 04:36:01;;;;;;;35.22;16.25;;;12.10;99.90;;;;;;5065229;28;20075;-62
2023/05/10 04:38:27;;;;;;;29.80;16.55;;;12.10;99.90;;;;;;5050462;28;20036;-62
2023/05/10 04:40:53;;;;;;;28.33;14.95;;;12.00;99.90;;;;;;5041295;28;20131;-62
2023/05/10 04:43:20;;;;;;;32.60;15.85;;;12.10;99.90;;;;;;5075487;28;20104;-62
2023/05/10 04:45:45;;;;;;;35.08;16.90;;;12.10;99.90;;;;;;5068191;28;20444;-63
2023/05/10 04:48:12;;;;;;;32.85;16.38;;;12.10;99.90;;;;;;5050622;28;20492;-62
2023/05/10 04:50:38;;;;;;;31.23;16.23;;;12.10;99.90;;;;;;5065559;28;20049;-62
2023/05/10 04:53:04;;;;;;;34.83;16.20;;;12.00;99.90;;;;;;5066126;28;20049;-62
2023/05/10 04:55:30;;;;;;;36.75;17.38;;;12.10;99.90;;;;;;5049141;28;20033;-64
2023/05/10 04:57:57;;;;;;;35.75;15.93;;;12.10;99.90;;;;;;5065501;28;20044;-64
2023/05/10 05:00:23;;;;;;;34.20;16.15;;;12.10;99.90;;;;;;5065661;28;20079;-63
2023/05/10 05:02:49;;;;;;;29.33;15.10;;;12.10;99.90;;;;;;5049718;28;20044;-64
2023/05/10 05:05:14;;;;;;;29.17;16.23;;;12.00;99.90;;;;;;5049635;28;20101;-64
2023/05/10 05:07:40;;;;;;;32.40;15.88;;;12.00;99.90;;;;;;5049473;28;20149;-66
2023/05/10 05:10:08;;;;;;;29.85;15.90;;;12.00;99.90;;;;;;5048462;28;20057;-65
2023/05/10 05:12:34;;;;;;;35.67;16.10;;;12.00;99.90;;;;;;5054442;28;20052;-66
2023/05/10 05:15:00;;;;;;;31.83;15.48;;;12.00;99.90;;;;;;5073331;28;20136;-67
2023/05/10 05:17:26;;;;;;;28.30;15.00;;;12.00;99.90;;;;;;5069232;28;20040;-69
2023/05/10 05:19:51;;;;;;;27.80;14.55;;;12.00;99.90;;;;;;5066159;28;20043;-64
2023/05/10 05:22:19;;;;;;;26.67;14.57;;;12.00;99.90;;;;;;5077088;28;20059;-66
2023/05/10 05:24:45;;;;;;;24.20;13.50;;;12.00;99.90;;;;;;5048570;28;20052;-65
2023/05/10 05:27:10;;;;;;;25.27;12.93;;;12.00;99.90;;;;;;5048722;28;20044;-65
2023/05/10 05:29:36;;;;;;;22.67;12.85;;;12.00;99.90;;;;;;5064783;28;20036;-66
2023/05/10 05:32:02;;;;;;;23.38;12.25;;;12.00;99.90;;;;;;5048290;28;20041;-66
2023/05/10 05:34:27;;;;;;;22.15;12.55;;;12.00;99.90;;;;;;5049532;28;20048;-65
2023/05/10 05:36:53;;;;;;;22.23;12.38;;;12.00;99.90;;;;;;5084596;28;20048;-65
2023/05/10 05:39:19;;;;;;;23.65;12.45;;;12.00;99.90;;;;;;5061061;28;20035;-65
2023/05/10 05:41:45;;;;;;;23.50;13.07;;;12.00;99.90;;;;;;5084864;28;20427;-66
2023/05/10 05:44:11;;;;;;;24.23;12.18;;;12.00;99.90;;;;;;5074832;28;20739;-65
2023/05/10 05:46:37;;;;;;;19.77;11.00;;;12.00;99.90;;;;;;5073819;28;20126;-63
2023/05/10 05:49:03;;;;;;;21.30;10.32;;;12.00;99.90;;;;;;5079812;28;20079;-64
2023/05/10 05:51:29;;;;;;;19.33;10.40;;;12.00;99.90;;;;;;5054692;28;20127;-65
2023/05/10 05:53:55;;;;;;;18.77;9.68;;;12.00;99.90;;;;;;5047913;28;20322;-62
2023/05/10 05:56:24;;;;;;;12.13;6.50;;;12.00;99.90;;;;;;5069364;28;20036;-64
2023/05/10 05:58:50;;;;;;;10.73;5.90;;;12.00;99.90;;;;;;5074375;28;20094;-62
2023/05/10 06:01:16;;;;;;;18.58;6.70;;;12.00;99.90;;;;;;5070738;28;20046;-64
2023/05/10 06:03:42;;;;;;;10.35;5.82;;;12.00;99.90;;;;;;5058803;28;20494;-66
2023/05/10 06:06:08;;;;;;;11.93;6.15;;;12.00;99.90;;;;;;5071684;28;20112;-64
2023/05/10 06:08:34;;;;;;;11.52;6.55;;;12.00;99.90;;;;;;5067409;28;20044;-64
2023/05/10 06:11:00;;;;;;;11.02;6.20;;;12.00;99.90;;;;;;5063501;28;20606;-63
2023/05/10 06:13:31;;;;;;;10.40;5.55;;;12.00;99.90;;;;;;5050552;28;20040;-68
2023/05/10 06:15:58;;;;;;;9.45;5.13;;;12.10;99.90;;;;;;5052138;28;20059;-63
2023/05/10 06:18:24;;;;;;;9.00;5.20;;;12.00;99.90;;;;;;5054317;28;20043;-63
2023/05/10 06:20:50;;;;;;;8.90;4.57;;;12.10;99.90;;;;;;5061304;28;20040;-64
2023/05/10 06:23:15;;;;;;;8.02;4.28;;;12.10;99.90;;;;;;5057624;28;20036;-66
2023/05/10 06:25:41;;;;;;;7.88;4.30;;;12.10;99.90;;;;;;5056120;28;20356;-67
2023/05/10 06:28:07;;;;;;;7.45;4.07;;;12.00;99.90;;;;;;5064460;28;20040;-61
2023/05/10 06:30:32;;;;;;;11.10;4.90;;;12.10;99.90;;;;;;5051294;28;20104;-65
2023/05/10 06:32:58;;;;;;;9.77;5.07;;;12.10;99.90;;;;;;5046680;28;20051;-60
2023/05/10 06:35:24;;;;;;;10.73;5.65;;;12.00;99.90;;;;;;5062871;28;20084;-61
2023/05/10 06:37:51;;;;;;;12.32;6.13;;;12.10;99.90;;;;;;5047892;28;20095;-64
2023/05/10 06:40:17;;;;;;;10.80;5.72;;;12.10;99.90;;;;;;5077711;28;20044;-62
2023/05/10 06:42:44;;;;;;;13.38;6.95;;;12.10;99.90;;;;;;5053048;28;20040;-63
2023/05/10 06:45:10;;;;;;;17.77;7.63;;;12.10;99.90;;;;;;5063097;28;20048;-65
2023/05/10 06:47:36;;;;;;;15.68;7.55;;;12.10;99.90;;;;;;5046704;28;20381;-62
2023/05/10 06:50:02;;;;;;;17.42;7.95;;;12.10;99.90;;;;;;5047451;28;20041;-63
2023/05/10 06:52:28;;;;;;;18.08;8.77;;;12.10;99.90;;;;;;5067001;28;20724;-61
2023/05/10 06:54:53;;;;;;;18.48;8.70;;;12.10;99.90;;;;;;5051565;28;20269;-64
2023/05/10 06:57:20;;;;;;;16.75;8.75;;;12.10;99.90;;;;;;5048184;28;20082;-63
2023/05/10 06:59:46;;;;;;;19.80;8.63;;;12.10;99.90;;;;;;5053224;28;20064;-61
2023/05/10 07:02:12;;;;;;;23.75;10.55;;;12.00;99.90;;;;;;5046479;28;20079;-62
2023/05/10 07:04:37;;;;;;;23.23;10.93;;;12.10;99.90;;;;;;5049551;28;20400;-63
2023/05/10 07:07:03;;;;;;;22.60;10.77;;;12.00;99.90;;;;;;5074629;28;20549;-63
2023/05/10 07:09:29;;;;;;;18.95;9.52;;;12.00;99.90;;;;;;5063286;28;20064;-65
2023/05/10 07:11:57;;;;;;;19.52;9.75;;;12.00;99.90;;;;;;5068640;28;20048;-70
2023/05/10 07:14:22;;;;;;;18.17;8.52;;;12.00;99.90;;;;;;5047947;28;20386;-65
2023/05/10 07:16:49;;;;;;;19.95;9.30;;;12.00;99.90;;;;;;5065241;28;20144;-64
2023/05/10 07:19:14;;;;;;;14.50;7.00;;;12.00;99.90;;;;;;5066390;28;20080;-64
2023/05/10 07:21:42;;;;;;;13.38;7.00;;;12.00;99.90;;;;;;5061693;28;20109;-71
2023/05/10 07:24:08;;;;;;;13.55;6.68;;;12.00;99.90;;;;;;5060980;28;20102;-62
2023/05/10 07:26:33;;;;;;;10.00;4.45;;;12.00;99.90;;;;;;5063640;28;20080;-65
2023/05/10 07:28:59;;;;;;;11.25;4.45;;;12.00;99.90;;;;;;5062529;28;20047;-68
2023/05/10 07:31:25;;;;;;;8.82;3.80;;;12.00;99.90;;;;;;5046549;28;20570;-66
2023/05/10 07:33:50;;;;;;;6.32;3.10;;;12.00;99.90;;;;;;5064904;28;20499;-64
2023/05/10 07:36:16;;;;;;;7.60;3.20;;;12.00;99.90;;;;;;5076824;28;20050;-65
2023/05/10 07:38:42;;;;;;;7.72;2.10;;;12.10;99.90;;;;;;5066284;28;20153;-63
2023/05/10 07:41:07;;;;;;;4.57;2.00;;;12.20;99.90;;;;;;5046654;28;20422;-64
2023/05/10 07:43:33;;;;;;;5.80;2.20;;;12.20;99.90;;;;;;5062799;28;20482;-65
2023/05/10 07:45:59;;;;;;;4.35;1.92;;;12.20;99.90;;;;;;5061761;28;20117;-68
2023/05/10 07:48:26;;;;;;;5.25;2.25;;;12.30;99.90;;;;;;5083517;28;20083;-62
2023/05/10 07:50:51;;;;;;;5.60;2.70;;;12.30;99.90;;;;;;5070020;28;20097;-65
2023/05/10 07:53:18;;;;;;;4.38;2.10;;;12.40;99.90;;;;;;5066744;28;20052;-66
2023/05/10 07:55:44;;;;;;;4.93;2.40;;;12.40;99.90;;;;;;5058999;28;20043;-64
2023/05/10 07:58:10;;;;;;;5.18;2.70;;;12.40;99.90;;;;;;5046131;28;20060;-63
2023/05/10 08:00:39;;;;;;;5.53;2.97;;;12.40;99.90;;;;;;5074556;28;20044;-68
2023/05/10 08:03:04;;;;;;;7.05;2.97;;;12.40;99.90;;;;;;5058872;28;20048;-67
2023/05/10 08:05:30;;;;;;;7.18;3.08;;;12.40;99.90;;;;;;5067121;28;20047;-69
2023/05/10 08:07:56;;;;;;;6.10;2.85;;;12.40;99.90;;;;;;5046329;28;20043;-65
2023/05/10 08:10:22;;;;;;;6.60;3.50;;;12.50;99.90;;;;;;5066038;28;20083;-63
2023/05/10 08:12:48;;;;;;;7.95;3.80;;;12.40;99.90;;;;;;5049582;28;20046;-64
2023/05/10 08:15:13;;;;;;;7.93;4.07;;;12.40;99.90;;;;;;5049822;28;20914;-63
2023/05/10 08:17:39;;;;;;;7.97;4.82;;;12.50;99.90;;;;;;5050205;28;20430;-66
2023/05/10 08:20:05;;;;;;;7.45;4.88;;;12.50;99.90;;;;;;5056536;28;20039;-69
2023/05/10 08:22:31;;;;;;;8.15;5.07;;;12.40;99.90;;;;;;5070771;28;20519;-66
2023/05/10 08:24:56;;;;;;;8.50;5.53;;;12.40;99.90;;;;;;5057721;28;20063;-66
2023/05/10 08:27:22;;;;;;;10.27;5.88;;;12.40;99.90;;;;;;5050201;28;20043;-66
2023/05/10 08:29:48;;;;;;;12.23;6.15;;;12.40;99.90;;;;;;5049106;28;20044;-65
2023/05/10 08:32:14;;;;;;;10.13;6.53;;;12.40;99.90;;;;;;5049432;28;20451;-69
2023/05/10 08:34:39;;;;;;;9.82;6.22;;;12.40;99.90;;;;;;5049672;28;20033;-67
2023/05/10 08:37:05;;;;;;;14.23;6.47;;;12.40;99.90;;;;;;5050005;28;20032;-64
2023/05/10 08:39:34;;;;;;;10.80;6.80;;;12.30;99.90;;;;;;5066466;28;20029;-63
2023/05/10 08:42:03;;;;;;;11.00;6.38;;;12.30;99.90;;;;;;5049198;28;20040;-66
2023/05/10 08:44:32;;;;;;;10.07;5.85;;;12.30;99.90;;;;;;5065200;28;20036;-67
2023/05/10 08:47:02;;;;;;;12.02;6.40;;;12.30;99.90;;;;;;5066034;28;20040;-66
2023/05/10 08:49:32;;;;;;;11.00;6.85;;;12.40;99.90;;;;;;5050124;28;20519;-63
2023/05/10 08:51:59;;;;;;;11.95;7.30;;;12.30;99.90;;;;;;5049108;28;20040;-64
2023/05/10 08:54:25;;;;;;;13.32;7.20;;;12.30;99.90;;;;;;5049457;28;20041;-67
2023/05/10 08:56:53;;;;;;;12.77;7.53;;;12.30;99.90;;;;;;5067925;28;20123;-66
2023/05/10 08:59:18;;;;;;;9.85;6.28;;;12.30;99.90;;;;;;5048250;28;20166;-66
2023/05/10 09:01:45;;;;;;;12.55;7.50;;;12.40;99.90;;;;;;5055156;28;20127;-64
2023/05/10 09:04:12;;;;;;;11.27;6.80;;;12.40;99.90;;;;;;5059327;28;20079;-63
2023/05/10 09:06:38;;;;;;;10.10;6.03;;;12.40;99.90;;;;;;5049559;28;20717;-64
2023/05/10 09:09:04;;;;;;;9.73;6.40;;;12.40;99.90;;;;;;5065917;28;20044;-65
2023/05/10 09:11:31;;;;;;;12.13;6.30;;;12.40;99.90;;;;;;5048772;28;20048;-62
2023/05/10 09:13:56;;;;;;;11.90;6.43;;;12.50;99.90;;;;;;5061231;28;20028;-64
2023/05/10 09:16:23;;;;;;;14.25;6.25;;;12.50;99.90;;;;;;5084203;28;20740;-64
2023/05/10 09:18:49;;;;;;;9.95;6.55;;;12.60;99.90;;;;;;5073125;28;20545;-63
2023/05/10 09:21:15;;;;;;;11.70;7.82;;;12.60;99.90;;;;;;5081017;28;20050;-62
2023/05/10 09:23:46;;;;;;;13.07;7.47;;;12.60;99.90;;;;;;5085495;28;20070;-63
2023/05/10 09:26:12;;;;;;;15.05;7.30;;;12.60;99.90;;;;;;5085982;28;20047;-64
2023/05/10 09:28:55;;;;;;;11.38;7.47;;;12.60;99.90;;;;;;5081339;28;20036;-63
2023/05/10 09:31:21;;;;;;;13.60;7.47;;;12.60;99.90;;;;;;5047551;28;20154;-64
2023/05/10 09:33:49;;;;;;;12.90;7.50;;;12.60;99.90;;;;;;5067572;28;20032;-63
2023/05/10 09:36:15;;;;;;;12.80;7.95;;;12.70;99.90;;;;;;5067056;28;20071;-64
2023/05/10 09:38:49;;;;;;;13.40;7.40;;;12.70;99.90;;;;;;5083269;28;20525;-63
2023/05/10 09:41:16;;;;;;;;;;;12.80;99.90;;;;;;5085423;28;20094;-63
2023/05/10 09:43:41;;;;;;;13.13;7.07;;;12.80;99.90;;;;;;5085476;28;19977;-65
2023/05/10 09:46:10;;;;;;;12.98;7.57;;;12.80;99.90;;;;;;5050077;28;20040;-63
2023/05/10 09:48:43;;;;;;;12.93;8.18;;;12.80;99.90;;;;;;5064889;28;20044;-62
2023/05/10 09:51:08;;;;;;;11.55;7.28;;;12.80;99.90;;;;;;5051225;28;20043;-62
2023/05/10 09:53:34;;;;;;;14.45;8.90;;;12.90;99.90;;;;;;5068486;28;20527;-62
2023/05/10 09:56:00;;;;;;;14.68;9.10;;;12.90;99.90;;;;;;5076648;28;20040;-62
2023/05/10 09:58:25;;;;;;;15.52;8.05;;;13.00;99.90;;;;;;5066187;28;20692;-62
2023/05/10 10:00:53;;;;;;;12.15;7.95;;;13.10;99.90;;;;;;5046764;28;20048;-63
2023/05/10 10:03:21;;;;;;;10.93;7.40;;;13.10;99.90;;;;;;5064300;28;20044;-62
2023/05/10 10:05:48;;;;;;;12.68;8.32;;;13.10;99.90;;;;;;5066849;28;20052;-62
2023/05/10 10:08:15;;;;;;;11.73;7.90;;;13.20;99.90;;;;;;5064943;28;20048;-63
2023/05/10 10:10:41;;;;;;;14.50;7.97;;;13.30;99.90;;;;;;5047360;28;20044;-62
2023/05/10 10:13:07;;;;;;;13.30;7.30;;;13.50;99.90;;;;;;5064692;28;20032;-62
2023/05/10 10:15:34;;;;;;;10.50;7.22;;;13.60;99.90;;;;;;5064578;28;20048;-63
2023/05/10 10:18:01;;;;;;;10.48;6.82;;;13.70;99.90;;;;;;5048135;28;20127;-61
2023/05/10 10:20:28;;;;;;;10.45;6.72;;;13.80;99.90;;;;;;5047882;28;20523;-60
2023/05/10 10:22:53;;;;;;;11.75;6.60;;;13.80;99.90;;;;;;5064669;28;20135;-61
2023/05/10 10:25:21;;;;;;;10.90;6.68;;;13.80;99.90;;;;;;5063091;28;20139;-63
2023/05/10 10:27:53;;;;;;;15.25;6.40;;;13.80;99.90;;;;;;5064128;28;20044;-61
2023/05/10 10:30:37;;;;;;;12.50;6.30;;;13.80;99.90;;;;;;5062574;28;20074;-61
2023/05/10 10:33:27;;;;;;;14.18;7.10;;;13.70;99.90;;;;;;5047498;28;20085;-61
2023/05/10 10:35:54;;;;;;;10.80;6.65;;;13.70;99.90;;;;;;5065825;28;20276;-62
2023/05/10 10:38:20;;;;;;;10.55;6.80;;;13.60;99.90;;;;;;5065911;28;20087;-61
2023/05/10 10:40:46;;;;;;;11.00;7.32;;;13.60;99.90;;;;;;5064942;28;20543;-63
2023/05/10 10:43:26;;;;;;;13.55;7.05;;;13.60;99.90;;;;;;5057007;28;20181;-64
2023/05/10 10:46:16;;;;;;;11.90;7.47;;;13.60;99.90;;;;;;5069417;28;20428;-62
2023/05/10 10:48:49;;;;;;;11.45;7.53;;;13.70;99.90;;;;;;5065431;28;20549;-64
2023/05/10 10:51:14;;;;;;;14.10;7.55;;;13.70;99.90;;;;;;5078614;28;20076;-63
2023/05/10 10:53:41;;;;;;;13.20;7.43;;;13.80;99.90;;;;;;5067227;28;20040;-64
2023/05/10 10:56:14;;;;;;;12.27;7.95;;;13.80;99.90;;;;;;5064662;28;20032;-64
2023/05/10 10:58:41;;;;;;;12.57;7.18;;;13.90;99.90;;;;;;5064143;28;20036;-63
2023/05/10 11:01:19;;;;;;;14.20;7.20;;;13.80;99.90;;;;;;5046313;28;20102;-64
2023/05/10 11:04:00;;;;;;;10.68;7.22;;;13.90;99.90;;;;;;5063732;28;20102;-66
2023/05/10 11:06:34;;;;;;;13.50;8.10;;;13.80;99.90;;;;;;5047204;28;20058;-65
2023/05/10 11:09:11;;;;;;;15.18;8.57;;;13.80;99.90;;;;;;5046765;28;20127;-64
2023/05/10 11:11:58;;;;;;;13.52;8.18;;;13.90;99.90;;;;;;5048270;28;20787;-65
2023/05/10 11:14:24;;;;;;;12.07;6.90;;;13.90;99.90;;;;;;5064701;28;20044;-66
2023/05/10 11:16:50;;;;;;;12.20;7.47;;;13.80;99.90;;;;;;5063720;28;20123;-64
2023/05/10 11:19:17;;;;;;;15.13;7.13;;;13.80;99.90;;;;;;5064150;28;20147;-66
2023/05/10 11:22:12;;;;;;;12.98;7.38;;;13.80;99.90;;;;;;5046652;28;20049;-65
2023/05/10 11:24:38;;;;;;;11.50;6.32;;;13.80;99.90;;;;;;5063580;28;20047;-67
2023/05/10 11:27:05;;;;;;;11.23;6.75;;;13.80;99.90;;;;;;5047130;28;20048;-65
2023/05/10 11:29:30;;;;;;;11.57;7.13;;;13.80;99.90;;;;;;5063352;28;20734;-68
2023/05/10 11:31:58;;;;;;;11.15;6.75;;;13.90;99.90;;;;;;5062727;28;20098;-65
2023/05/10 11:34:33;;;;;;;11.82;6.65;;;13.90;99.90;;;;;;5054570;28;20039;-66
2023/05/10 11:36:59;;;;;;;10.40;6.65;;;13.90;99.90;;;;;;5065625;28;20079;-66
2023/05/10 11:39:30;;;;;;;11.23;6.68;;;14.00;99.90;;;;;;5057673;28;20495;-65
2023/05/10 11:41:56;;;;;;;9.00;6.03;;;14.00;99.90;;;;;;5070678;28;20040;-67
2023/05/10 11:44:22;;;;;;;9.88;6.53;;;14.00;99.90;;;;;;5058925;28;20045;-66
2023/05/10 11:46:49;;;;;;;11.98;6.65;;;14.00;99.90;;;;;;5066986;28;20036;-64
2023/05/10 11:49:15;;;;;;;10.95;7.22;;;14.00;99.90;;;;;;5067206;28;20041;-67
2023/05/10 11:51:42;;;;;;;11.43;7.55;;;14.00;99.90;;;;;;5074234;28;20279;-66
2023/05/10 11:54:10;;;;;;;12.30;6.82;;;14.00;99.90;;;;;;5070588;28;20245;-67
2023/05/10 11:56:40;;;;;;;10.88;6.57;;;14.00;99.90;;;;;;5070871;28;20040;-67
2023/05/10 11:59:07;;;;;;;8.60;5.65;;;14.00;99.90;;;;;;5051851;28;20048;-68
2023/05/10 12:01:33;;;;;;;11.75;6.30;;;14.00;99.90;;;;;;5065816;28;20044;-65
2023/05/10 12:04:01;;;;;;;11.20;6.80;;;13.90;99.90;;;;;;5050229;28;20754;-67
2023/05/10 12:06:30;;;;;;;14.15;6.90;;;13.90;99.90;;;;;;5067173;28;20131;-67
2023/05/10 12:08:56;;;;;;;11.50;7.32;;;13.90;99.90;;;;;;5066873;28;20089;-67
2023/05/10 12:11:26;;;;;;;13.02;7.43;;;13.90;99.90;;;;;;5066342;28;20041;-67
2023/05/10 12:13:51;;;;;;;13.07;7.18;;;13.90;99.90;;;;;;5050279;28;20040;-67
2023/05/10 12:16:25;;;;;;;11.68;7.03;;;13.90;99.90;;;;;;5065997;28;20040;-67
2023/05/10 12:18:52;;;;;;;;;;;14.00;99.90;;;;;;5050329;28;20036;-67
2023/05/10 12:21:19;;;;;;;16.48;7.90;;;13.90;99.90;;;;;;5066816;28;19921;-67
2023/05/10 12:23:46;;;;;;;13.15;8.48;;;14.00;99.90;;;;;;5066441;28;20052;-68
2023/05/10 12:26:13;;;;;;;14.30;8.07;;;14.00;99.90;;;;;;5066549;28;20500;-69
2023/05/10 12:28:39;;;;;;;14.68;8.27;;;14.00;99.90;;;;;;5068696;28;20048;-68
2023/05/10 12:31:06;;;;;;;12.52;8.38;;;14.00;99.90;;;;;;5077199;28;20513;-68
2023/05/10 12:33:42;;;;;;;13.18;8.60;;;14.00;99.90;;;;;;5075561;28;20101;-69
2023/05/10 12:36:09;;;;;;;13.57;8.68;;;14.00;99.90;;;;;;5054910;28;20647;-68